createdAt,value
2022-08-22T00:01:52.491Z,8.50
2022-08-22T00:02:41.708Z,4.20
2022-08-22T00:03:03.386Z,7.60
2022-08-22T00:04:41.676Z,11.00
2022-08-22T00:07:37.079Z,8.40
2022-08-22T00:10:12.598Z,7.20
2022-08-22T00:13:13.741Z,9.30
2022-08-22T00:15:52.042Z,9.70
2022-08-22T00:18:38.000Z,6.50
2022-08-22T00:21:22.454Z,9.20
2022-08-22T00:24:07.601Z,7.50
2022-08-22T00:26:54.694Z,7.00
2022-08-22T00:29:29.012Z,7.30
2022-08-22T00:32:27.673Z,7.00
2022-08-22T00:35:07.252Z,6.60
2022-08-22T00:37:57.093Z,9.60
2022-08-22T00:41:04.519Z,9.60
2022-08-22T00:44:09.411Z,8.90
2022-08-22T00:47:05.759Z,8.40
2022-08-22T00:50:00.221Z,7.30
2022-08-22T00:52:53.027Z,6.70
2022-08-22T00:55:58.707Z,6.70
2022-08-22T00:58:53.745Z,7.10
2022-08-22T01:01:37.521Z,8.20
2022-08-22T01:04:28.885Z,7.20
2022-08-22T01:10:23.036Z,6.20
2022-08-22T01:13:44.302Z,11.20
2022-08-22T01:17:07.214Z,8.20
2022-08-22T01:19:57.657Z,9.60
2022-08-22T01:22:28.059Z,7.30
2022-08-22T01:25:25.975Z,5.80
2022-08-22T01:28:39.735Z,7.20
2022-08-22T01:31:50.669Z,8.10
2022-08-22T01:34:54.653Z,10.50
2022-08-22T01:37:47.397Z,7.30
2022-08-22T01:41:36.952Z,7.50
2022-08-22T01:44:29.006Z,7.40
2022-08-22T01:47:08.711Z,7.80
2022-08-22T01:50:00.454Z,7.10
2022-08-22T01:52:51.068Z,5.40
2022-08-22T01:55:33.160Z,6.50
2022-08-22T01:58:15.813Z,7.00
2022-08-22T02:01:16.777Z,6.20
2022-08-22T02:04:50.231Z,6.20
2022-08-22T02:07:31.869Z,6.10
2022-08-22T02:10:37.947Z,6.10
2022-08-22T02:13:23.291Z,6.90
2022-08-22T02:16:04.365Z,9.50
2022-08-22T02:18:50.913Z,8.40
2022-08-22T02:21:40.689Z,8.80
2022-08-22T02:24:29.410Z,5.90
2022-08-22T02:27:37.192Z,8.20
2022-08-22T02:30:15.762Z,5.70
2022-08-22T02:32:59.519Z,6.80
2022-08-22T02:35:38.234Z,7.20
2022-08-22T02:38:20.951Z,7.30
2022-08-22T02:41:14.242Z,8.40
2022-08-22T02:43:49.880Z,7.70
2022-08-22T02:46:26.908Z,8.70
2022-08-22T02:49:15.783Z,6.80
2022-08-22T02:52:07.840Z,9.40
2022-08-22T02:54:46.154Z,5.70
2022-08-22T02:57:31.496Z,8.30
2022-08-22T03:00:31.771Z,7.20
2022-08-22T03:03:21.942Z,6.50
2022-08-22T03:06:02.056Z,11.10
2022-08-22T03:08:34.237Z,9.50
2022-08-22T03:11:21.677Z,7.30
2022-08-22T03:14:16.616Z,6.30
2022-08-22T03:17:16.260Z,5.30
2022-08-22T03:20:00.623Z,6.20
2022-08-22T03:22:39.439Z,6.00
2022-08-22T03:25:30.098Z,6.30
2022-08-22T03:28:09.228Z,4.80
2022-08-22T03:30:56.234Z,5.90
2022-08-22T03:33:31.111Z,7.80
2022-08-22T03:36:09.422Z,9.10
2022-08-22T03:38:36.803Z,5.70
2022-08-22T03:41:10.090Z,7.10
2022-08-22T03:44:05.215Z,6.70
2022-08-22T03:46:57.295Z,5.90
2022-08-22T03:50:08.631Z,6.10
2022-08-22T03:53:18.820Z,6.40
2022-08-22T03:56:13.643Z,6.10
2022-08-22T03:58:49.892Z,6.60
2022-08-22T04:01:50.863Z,7.50
2022-08-22T04:04:38.575Z,9.00
2022-08-22T04:07:28.346Z,6.70
2022-08-22T04:10:29.083Z,7.50
2022-08-22T04:13:21.461Z,7.40
2022-08-22T04:16:07.297Z,8.20
2022-08-22T04:19:16.026Z,7.80
2022-08-22T04:22:07.903Z,8.80
2022-08-22T04:24:44.286Z,5.20
2022-08-22T04:27:43.436Z,7.20
2022-08-22T04:30:16.694Z,8.60
2022-08-22T04:33:09.848Z,7.60
2022-08-22T04:36:01.135Z,7.90
2022-08-22T04:41:30.590Z,11.40
2022-08-22T04:44:45.942Z,6.50
2022-08-22T04:47:32.258Z,7.60
2022-08-22T04:50:23.820Z,8.60
2022-08-22T04:53:10.340Z,7.70
2022-08-22T04:55:46.851Z,8.40
2022-08-22T04:58:49.021Z,6.70
2022-08-22T05:01:21.525Z,5.40
2022-08-22T05:03:59.865Z,8.10
2022-08-22T05:06:33.136Z,9.10
2022-08-22T05:09:14.137Z,7.50
2022-08-22T05:11:46.438Z,8.20
2022-08-22T05:14:19.670Z,7.80
2022-08-22T05:16:53.351Z,11.20
2022-08-22T05:19:32.075Z,8.10
2022-08-22T05:22:01.043Z,7.60
2022-08-22T05:24:37.511Z,6.30
2022-08-22T05:27:16.649Z,7.60
2022-08-22T05:29:48.955Z,8.60
2022-08-22T05:32:29.198Z,10.10
2022-08-22T05:35:01.576Z,9.80
2022-08-22T05:37:48.355Z,8.80
2022-08-22T05:40:29.664Z,8.70
2022-08-22T05:42:58.108Z,6.50
2022-08-22T05:45:28.325Z,7.00
2022-08-22T05:48:08.975Z,8.10
2022-08-22T05:50:42.609Z,7.70
2022-08-22T05:53:21.537Z,7.20
2022-08-22T05:56:10.377Z,8.30
2022-08-22T05:58:43.860Z,9.00
2022-08-22T06:01:36.313Z,7.40
2022-08-22T06:04:16.349Z,9.60
2022-08-22T06:07:02.106Z,8.80
2022-08-22T06:09:40.400Z,9.60
2022-08-22T06:12:22.256Z,10.10
2022-08-22T06:15:14.523Z,9.70
2022-08-22T06:17:48.433Z,6.90
2022-08-22T06:20:34.591Z,7.40
2022-08-22T06:23:03.730Z,7.00
2022-08-22T06:25:35.130Z,9.20
2022-08-22T06:28:16.081Z,7.20
2022-08-22T06:30:46.105Z,9.90
2022-08-22T06:33:20.965Z,8.90
2022-08-22T06:36:13.387Z,7.00
2022-08-22T06:39:01.350Z,5.60
2022-08-22T06:41:34.443Z,8.10
2022-08-22T06:44:05.339Z,11.10
2022-08-22T06:46:36.748Z,6.20
2022-08-22T06:49:07.454Z,9.90
2022-08-22T06:51:38.295Z,8.80
2022-08-22T06:54:15.223Z,6.20
2022-08-22T06:56:47.142Z,8.70
2022-08-22T06:59:19.269Z,9.70
2022-08-22T07:01:57.013Z,9.30
2022-08-22T07:04:26.740Z,9.20
2022-08-22T07:06:57.208Z,9.80
2022-08-22T07:09:41.580Z,8.20
2022-08-22T07:12:19.780Z,11.20
2022-08-22T07:14:52.146Z,7.40
2022-08-22T07:17:25.114Z,7.30
2022-08-22T07:20:23.012Z,10.40
2022-08-22T07:23:13.128Z,10.00
2022-08-22T07:26:11.306Z,8.20
2022-08-22T07:28:51.639Z,8.90
2022-08-22T07:31:47.882Z,11.70
2022-08-22T07:34:47.462Z,10.00
2022-08-22T07:37:17.890Z,11.60
2022-08-22T07:39:55.531Z,11.80
2022-08-22T07:42:49.610Z,7.30
2022-08-22T07:45:33.060Z,9.70
2022-08-22T07:48:28.002Z,8.60
2022-08-22T07:51:08.567Z,9.10
2022-08-22T07:53:48.767Z,9.80
2022-08-22T07:56:24.266Z,10.00
2022-08-22T07:59:12.921Z,8.00
2022-08-22T08:01:47.867Z,8.20
2022-08-22T08:04:26.406Z,8.50
2022-08-22T08:06:59.077Z,8.90
2022-08-22T08:09:42.135Z,9.10
2022-08-22T08:12:12.535Z,9.80
2022-08-22T08:14:44.204Z,10.80
2022-08-22T08:17:31.996Z,10.40
2022-08-22T08:20:09.223Z,10.30
2022-08-22T08:22:38.984Z,10.60
2022-08-22T08:25:08.442Z,7.90
2022-08-22T08:27:57.161Z,8.80
2022-08-22T08:30:55.818Z,10.00
2022-08-22T08:33:28.321Z,5.20
2022-08-22T08:36:05.731Z,9.40
2022-08-22T08:38:56.056Z,7.30
2022-08-22T08:41:38.486Z,7.80
2022-08-22T08:44:50.516Z,12.10
2022-08-22T08:48:24.292Z,10.30
2022-08-22T08:51:13.385Z,10.70
2022-08-22T08:54:16.191Z,11.10
2022-08-22T08:59:46.712Z,8.20
2022-08-22T09:02:33.109Z,6.90
2022-08-22T09:05:54.772Z,6.20
2022-08-22T09:09:04.004Z,6.60
2022-08-22T09:11:58.761Z,8.80
2022-08-22T09:14:44.504Z,7.50
2022-08-22T09:18:04.156Z,8.20
2022-08-22T09:21:30.723Z,7.60
2022-08-22T09:24:24.658Z,7.50
2022-08-22T09:27:01.354Z,9.20
2022-08-22T09:30:19.612Z,9.40
2022-08-22T09:33:05.685Z,8.00
2022-08-22T09:35:56.893Z,6.10
2022-08-22T09:38:55.446Z,8.70
2022-08-22T09:41:51.599Z,8.70
2022-08-22T09:45:14.595Z,6.90
2022-08-22T09:48:07.306Z,7.80
2022-08-22T09:51:28.756Z,7.40
2022-08-22T09:54:19.577Z,6.60
2022-08-22T09:56:58.510Z,5.90
2022-08-22T09:59:52.093Z,7.80
2022-08-22T10:02:43.398Z,7.70
2022-08-22T10:05:39.459Z,7.20
2022-08-22T10:08:13.919Z,9.10
2022-08-22T10:11:02.574Z,7.30
2022-08-22T10:14:01.496Z,7.50
2022-08-22T10:17:01.471Z,8.20
2022-08-22T10:19:38.125Z,6.60
2022-08-22T10:22:05.592Z,6.30
2022-08-22T10:25:00.017Z,6.40
2022-08-22T10:28:00.845Z,7.10
2022-08-22T10:30:40.543Z,5.60
2022-08-22T10:33:29.057Z,6.70
2022-08-22T10:36:11.803Z,7.00
2022-08-22T10:38:52.028Z,5.90
2022-08-22T10:41:36.928Z,7.30
2022-08-22T10:44:30.970Z,6.20
2022-08-22T10:47:15.926Z,6.60
2022-08-22T10:49:58.641Z,5.00
2022-08-22T10:52:47.232Z,7.80
2022-08-22T10:55:26.654Z,5.70
2022-08-22T10:58:22.408Z,5.50
2022-08-22T11:00:55.526Z,4.40
2022-08-22T11:03:43.847Z,5.90
2022-08-22T11:06:30.028Z,5.00
2022-08-22T11:09:17.827Z,3.90
2022-08-22T11:12:04.489Z,5.90
2022-08-22T11:14:35.228Z,5.30
2022-08-22T11:17:30.292Z,5.40
2022-08-22T11:20:13.298Z,5.60
2022-08-22T11:23:04.333Z,6.20
2022-08-22T11:25:53.706Z,5.50
2022-08-22T11:29:14.516Z,5.80
2022-08-22T11:32:08.398Z,5.50
2022-08-22T11:34:42.693Z,5.50
2022-08-22T11:37:43.680Z,7.40
2022-08-22T11:40:33.944Z,6.10
2022-08-22T11:43:17.279Z,6.30
2022-08-22T11:45:54.943Z,5.20
2022-08-22T11:48:42.292Z,5.50
2022-08-22T11:51:30.062Z,5.20
2022-08-22T11:54:21.568Z,5.10
2022-08-22T11:57:10.031Z,3.60
2022-08-22T11:59:46.483Z,4.50
2022-08-22T12:02:26.767Z,4.10
2022-08-22T12:05:20.028Z,3.40
2022-08-22T12:08:10.653Z,4.70
2022-08-22T12:11:02.572Z,5.80
2022-08-22T12:14:04.038Z,3.80
2022-08-22T12:16:59.894Z,5.60
2022-08-22T12:20:18.753Z,4.90
2022-08-22T12:23:13.254Z,3.30
2022-08-22T12:26:13.991Z,4.70
2022-08-22T12:29:16.964Z,6.20
2022-08-22T12:32:28.565Z,4.40
2022-08-22T12:35:30.109Z,3.90
2022-08-22T12:38:38.287Z,4.40
2022-08-22T12:41:46.804Z,4.20
2022-08-22T12:44:52.238Z,3.50
2022-08-22T12:47:50.794Z,4.10
2022-08-22T12:50:36.069Z,3.00
2022-08-22T12:53:40.162Z,6.90
2022-08-22T12:56:31.732Z,4.10
2022-08-22T12:59:22.361Z,3.40
2022-08-22T13:01:55.376Z,3.10
2022-08-22T13:04:33.323Z,4.20
2022-08-22T13:07:22.653Z,2.90
2022-08-22T13:10:17.353Z,5.40
2022-08-22T13:12:51.461Z,4.60
2022-08-22T13:15:54.044Z,5.30
2022-08-22T13:18:31.148Z,2.80
2022-08-22T13:21:05.796Z,5.00
2022-08-22T13:23:41.997Z,4.60
2022-08-22T13:26:33.712Z,4.60
2022-08-22T13:29:26.194Z,3.40
2022-08-22T13:32:03.695Z,4.10
2022-08-22T13:34:43.735Z,5.10
2022-08-22T13:37:17.538Z,3.20
2022-08-22T13:42:30.374Z,4.20
2022-08-22T13:45:05.425Z,4.60
2022-08-22T13:47:39.585Z,3.20
2022-08-22T13:50:20.344Z,3.20
2022-08-22T13:52:58.443Z,3.50
2022-08-22T13:55:51.617Z,3.00
2022-08-22T13:58:51.457Z,3.30
2022-08-22T14:01:47.133Z,2.60
2022-08-22T14:04:36.459Z,3.90
2022-08-22T14:07:04.542Z,3.10
2022-08-22T14:09:57.552Z,3.30
2022-08-22T14:12:50.187Z,2.70
2022-08-22T14:15:45.099Z,2.90
2022-08-22T14:18:31.470Z,2.30
2022-08-22T14:21:40.676Z,1.80
2022-08-22T14:24:29.047Z,2.20
2022-08-22T14:27:12.415Z,1.80
2022-08-22T14:29:50.855Z,1.70
2022-08-22T14:32:23.816Z,3.50
2022-08-22T14:35:05.096Z,4.10
2022-08-22T14:37:42.859Z,2.80
2022-08-22T14:40:34.749Z,1.00
2022-08-22T14:43:15.872Z,1.70
2022-08-22T14:46:15.252Z,3.50
2022-08-22T14:49:02.780Z,1.60
2022-08-22T14:51:30.349Z,1.10
2022-08-22T14:54:21.052Z,1.90
2022-08-22T14:56:52.826Z,2.50
2022-08-22T14:59:32.644Z,2.20
2022-08-22T15:02:31.424Z,2.30
2022-08-22T15:05:15.201Z,2.40
2022-08-22T15:07:53.365Z,2.70
2022-08-22T15:10:31.793Z,3.20
2022-08-22T15:13:09.652Z,2.50
2022-08-22T15:15:52.796Z,2.10
2022-08-22T15:18:51.496Z,2.10
2022-08-22T15:21:33.263Z,4.60
2022-08-22T15:24:13.043Z,1.70
2022-08-22T15:26:52.261Z,2.50
2022-08-22T15:29:28.058Z,2.50
2022-08-22T15:32:03.503Z,1.90
2022-08-22T15:34:40.057Z,2.20
2022-08-22T15:37:20.492Z,1.60
2022-08-22T15:40:31.573Z,1.50
2022-08-22T15:43:22.864Z,1.30
2022-08-22T15:46:18.204Z,2.00
2022-08-22T15:49:03.622Z,3.20
2022-08-22T15:51:46.708Z,2.00
2022-08-22T15:54:24.993Z,1.60
2022-08-22T15:56:52.915Z,2.40
2022-08-22T15:59:48.221Z,1.80
2022-08-22T16:02:42.757Z,1.30
2022-08-22T16:05:10.600Z,2.70
2022-08-22T16:07:41.509Z,1.40
2022-08-22T16:10:32.957Z,1.80
2022-08-22T16:13:26.542Z,1.30
2022-08-22T16:16:08.692Z,2.10
2022-08-22T16:18:45.067Z,1.40
2022-08-22T16:21:22.858Z,1.60
2022-08-22T16:23:50.869Z,1.40
2022-08-22T16:26:30.340Z,1.30
2022-08-22T16:29:07.287Z,2.00
2022-08-22T16:31:43.014Z,2.30
2022-08-22T16:34:16.486Z,2.70
2022-08-22T16:36:58.693Z,1.30
2022-08-22T16:39:50.341Z,2.80
2022-08-22T16:42:22.392Z,2.50
2022-08-22T16:45:12.212Z,2.30
2022-08-22T16:47:56.616Z,2.30
2022-08-22T16:50:40.998Z,1.60
2022-08-22T16:53:20.561Z,0.60
2022-08-22T16:56:05.849Z,2.40
2022-08-22T16:59:22.077Z,1.60
2022-08-22T17:02:11.865Z,1.80
2022-08-22T17:05:18.244Z,1.90
2022-08-22T17:08:07.068Z,0.90
2022-08-22T17:11:30.163Z,2.60
2022-08-22T17:14:42.453Z,1.00
2022-08-22T17:17:21.958Z,1.50
2022-08-22T17:19:58.145Z,1.40
2022-08-22T17:22:45.589Z,1.80
2022-08-22T17:26:07.831Z,0.90
2022-08-22T17:29:00.966Z,1.50
2022-08-22T17:32:08.252Z,2.60
2022-08-22T17:35:00.484Z,1.80
2022-08-22T17:37:54.958Z,2.00
2022-08-22T17:40:37.327Z,2.20
2022-08-22T17:43:48.959Z,1.30
2022-08-22T17:46:28.871Z,1.40
2022-08-22T17:49:20.882Z,2.50
2022-08-22T17:52:22.555Z,1.50
2022-08-22T17:54:57.107Z,2.20
2022-08-22T17:57:40.444Z,2.50
2022-08-22T18:00:31.262Z,0.90
2022-08-22T18:03:24.411Z,2.20
2022-08-22T18:06:03.131Z,1.90
2022-08-22T18:08:38.790Z,2.90
2022-08-22T18:11:40.316Z,1.60
2022-08-22T18:14:33.642Z,2.10
2022-08-22T18:17:01.862Z,1.70
2022-08-22T18:20:02.430Z,3.20
2022-08-22T18:22:50.559Z,1.70
2022-08-22T18:25:17.896Z,2.60
2022-08-22T18:27:56.823Z,0.90
2022-08-22T18:30:53.270Z,3.60
2022-08-22T18:33:44.774Z,2.90
2022-08-22T18:36:28.555Z,3.70
2022-08-22T18:39:07.130Z,1.30
2022-08-22T18:41:44.497Z,2.50
2022-08-22T18:44:30.164Z,3.90
2022-08-22T18:47:13.985Z,2.10
2022-08-22T18:49:48.351Z,2.30
2022-08-22T18:52:26.352Z,1.60
2022-08-22T18:55:23.744Z,2.10
2022-08-22T18:58:05.455Z,2.60
2022-08-22T19:01:15.606Z,2.80
2022-08-22T19:04:17.543Z,1.70
2022-08-22T19:07:14.355Z,1.80
2022-08-22T19:10:09.036Z,2.30
2022-08-22T19:13:17.837Z,2.60
2022-08-22T19:16:04.352Z,2.20
2022-08-22T19:18:44.818Z,2.50
2022-08-22T19:21:46.576Z,2.00
2022-08-22T19:25:08.964Z,2.60
2022-08-22T19:27:45.023Z,2.50
2022-08-22T19:30:33.721Z,3.00
2022-08-22T19:33:05.164Z,3.20
2022-08-22T19:35:49.570Z,3.60
2022-08-22T19:39:01.259Z,1.70
2022-08-22T19:41:52.568Z,3.20
2022-08-22T19:44:19.943Z,3.10
2022-08-22T19:47:05.965Z,2.80
2022-08-22T19:49:40.357Z,3.10
2022-08-22T19:52:27.027Z,2.30
2022-08-22T19:55:30.964Z,2.60
2022-08-22T19:58:32.530Z,4.10
2022-08-22T20:01:49.076Z,3.00
2022-08-22T20:05:19.022Z,2.50
2022-08-22T20:08:25.450Z,4.50
2022-08-22T20:11:01.523Z,2.70
2022-08-22T20:13:33.459Z,2.80
2022-08-22T20:16:21.272Z,2.90
2022-08-22T20:19:14.400Z,3.00
2022-08-22T20:21:56.291Z,2.70
2022-08-22T20:24:45.626Z,5.00
2022-08-22T20:27:24.383Z,3.60
2022-08-22T20:30:02.255Z,3.20
2022-08-22T20:32:32.637Z,3.50
2022-08-22T20:35:03.526Z,2.60
2022-08-22T20:40:55.975Z,2.80
2022-08-22T20:43:43.579Z,2.60
2022-08-22T20:46:38.575Z,2.60
2022-08-22T20:49:19.285Z,2.70
2022-08-22T20:52:18.540Z,2.60
2022-08-22T20:55:00.688Z,2.40
2022-08-22T20:57:28.939Z,3.70
2022-08-22T21:00:12.739Z,3.60
2022-08-22T21:03:14.630Z,3.50
2022-08-22T21:05:45.180Z,2.80
2022-08-22T21:08:19.626Z,3.00
2022-08-22T21:11:18.934Z,3.20
2022-08-22T21:13:47.562Z,2.80
2022-08-22T21:16:16.331Z,2.70
2022-08-22T21:18:50.670Z,2.90
2022-08-22T21:21:23.195Z,2.80
2022-08-22T21:24:00.557Z,2.70
2022-08-22T21:26:36.646Z,2.40
2022-08-22T21:29:20.619Z,2.30
2022-08-22T21:32:08.752Z,4.20
2022-08-22T21:34:46.169Z,3.60
2022-08-22T21:37:36.610Z,2.70
2022-08-22T21:40:21.020Z,3.20
2022-08-22T21:42:59.497Z,2.60
2022-08-22T21:45:42.432Z,3.90
2022-08-22T21:48:44.019Z,2.70
2022-08-22T21:51:27.661Z,2.30
2022-08-22T21:54:25.802Z,3.40
2022-08-22T21:57:00.794Z,2.50
2022-08-22T21:59:50.729Z,2.70
2022-08-22T22:02:39.640Z,2.70
2022-08-22T22:05:14.940Z,3.40
2022-08-22T22:07:46.554Z,2.80
2022-08-22T22:10:18.157Z,3.70
2022-08-22T22:12:48.605Z,2.80
2022-08-22T22:15:19.946Z,2.70
2022-08-22T22:17:47.701Z,3.90
2022-08-22T22:20:17.688Z,4.20
2022-08-22T22:22:47.081Z,2.80
2022-08-22T22:25:40.381Z,4.30
2022-08-22T22:28:15.176Z,5.20
2022-08-22T22:30:44.564Z,3.60
2022-08-22T22:33:12.805Z,3.10
2022-08-22T22:35:41.321Z,3.30
2022-08-22T22:38:09.491Z,2.50
2022-08-22T22:40:37.074Z,3.80
2022-08-22T22:43:04.675Z,3.00
2022-08-22T22:45:32.134Z,3.10
2022-08-22T22:47:59.811Z,3.90
2022-08-22T22:50:27.399Z,5.40
2022-08-22T22:52:55.043Z,3.20
2022-08-22T22:55:24.970Z,3.20
2022-08-22T22:57:58.752Z,2.40
2022-08-22T23:00:30.730Z,2.40
2022-08-22T23:03:05.141Z,3.20
2022-08-22T23:05:34.280Z,4.10
2022-08-22T23:08:03.140Z,2.90
2022-08-22T23:10:32.356Z,3.00
2022-08-22T23:12:59.989Z,3.80
2022-08-22T23:15:27.798Z,3.30
2022-08-22T23:17:55.460Z,4.20
2022-08-22T23:20:24.120Z,2.70
2022-08-22T23:22:51.563Z,3.10
2022-08-22T23:25:19.187Z,3.10
2022-08-22T23:27:52.693Z,3.40
2022-08-22T23:30:21.991Z,4.00
2022-08-22T23:32:49.555Z,4.40
2022-08-22T23:35:17.173Z,2.80
2022-08-22T23:37:44.730Z,3.00
2022-08-22T23:40:12.716Z,2.50
2022-08-22T23:42:40.306Z,3.30
2022-08-22T23:45:08.194Z,2.30
2022-08-22T23:47:35.697Z,4.30
2022-08-22T23:50:06.219Z,5.00
2022-08-22T23:52:34.275Z,2.70
2022-08-22T23:55:01.953Z,3.30
2022-08-22T23:57:29.598Z,3.50
2022-08-22T23:59:57.741Z,3.30
